Lifter — V2DD4 — position and weather

sailwx.info

Track history (hours):
 
Tides and Currents Weather Stations Pressure Air Temp Water Temp Dewpoint Dewpoint Depression Visibility Wind Speed Wind Dir Waves Ship Positions

Lifter

Last reported at 2014-Oct-29 21:13 UTC. Time now 2014-Oct-30 14:35 UTC.
Position N 40°45' E 028°53'.

Length 118 m; draft 7.6 m.

Type: Ship. MMSI: 305175000.

Date/timePositionNaut miles runAvg speedWind from/ knotsBaromVisibWave heightAir tempDewpointWater temp
2014-Oct-29 21:13N 40°45' E 028°53'812.6
2014-Oct-29 20:33N 40°45' E 029°04'1312.5
2014-Oct-29 19:33N 40°44' E 029°21'1210.9
2014-Oct-29 18:27N 40°45' E 029°37'1 0.0
2014-Oct-28 05:34N 40°45' E 029°35'10 9.3
2014-Oct-28 04:32N 40°43' E 029°22'1111.6
2014-Oct-28 03:34N 40°48' E 029°09'1211.5
2014-Oct-28 02:32N 40°55' E 028°56'  
2014-Oct-22 12:08N 42°16' E 035°45'712.7
2014-Oct-22 11:34N 42°14' E 035°55'1212.3
2014-Oct-22 10:34N 42°10' E 036°10'1212.1
2014-Oct-22 09:33N 42°06' E 036°26'1812.0
2014-Oct-22 08:06N 41°60' E 036°48'811.8
2014-Oct-22 07:26N 41°57' E 036°58'  
Track history (hours):
 
Tides and Currents Weather Stations Pressure Air Temp Water Temp Dewpoint Dewpoint Depression Visibility Wind Speed Wind Dir Waves Ship Positions

Lifter

Last reported at 2014-Oct-29 21:13 UTC. Time now 2014-Oct-30 14:35 UTC.
Position N 40°45' E 028°53'.

Length 118 m; draft 7.6 m.

Type: Ship. MMSI: 305175000.

Date/timePositionNaut miles runAvg speedWind from/ knotsBaromVisibWave heightAir tempDewpointWater temp
2014-Oct-29 21:13N 40°45' E 028°53'812.6
2014-Oct-29 20:33N 40°45' E 029°04'1312.5
2014-Oct-29 19:33N 40°44' E 029°21'1210.9
2014-Oct-29 18:27N 40°45' E 029°37'1 0.0
2014-Oct-28 05:34N 40°45' E 029°35'10 9.3
2014-Oct-28 04:32N 40°43' E 029°22'1111.6
2014-Oct-28 03:34N 40°48' E 029°09'1211.5
2014-Oct-28 02:32N 40°55' E 028°56'  
2014-Oct-22 12:08N 42°16' E 035°45'712.7
2014-Oct-22 11:34N 42°14' E 035°55'1212.3
2014-Oct-22 10:34N 42°10' E 036°10'1212.1
2014-Oct-22 09:33N 42°06' E 036°26'1812.0
2014-Oct-22 08:06N 41°60' E 036°48'811.8
2014-Oct-22 07:26N 41°57' E 036°58'  

Dump ship's entire track history